sensor_id;sensor_type;location;lat;lon;timestamp;pressure;altitude;pressure_sealevel;temperature;humidity
80424;BME280;69765;47.668;19.326;2024-03-17T00:02:01;99355.91;;;8.32;100.00
80424;BME280;69765;47.668;19.326;2024-03-17T00:05:03;99361.94;;;8.33;100.00
80424;BME280;69765;47.668;19.326;2024-03-17T00:08:05;99358.72;;;8.35;100.00
80424;BME280;69765;47.668;19.326;2024-03-17T00:11:06;99368.31;;;8.38;100.00
80424;BME280;69765;47.668;19.326;2024-03-17T00:14:07;99363.41;;;8.41;100.00
80424;BME280;69765;47.668;19.326;2024-03-17T00:17:09;99362.28;;;8.37;100.00
80424;BME280;69765;47.668;19.326;2024-03-17T00:20:11;99360.78;;;8.29;100.00
80424;BME280;69765;47.668;19.326;2024-03-17T00:23:19;99359.94;;;8.18;100.00
80424;BME280;69765;47.668;19.326;2024-03-17T00:26:21;99360.25;;;8.11;100.00
80424;BME280;69765;47.668;19.326;2024-03-17T00:29:23;99369.09;;;8.05;100.00
80424;BME280;69765;47.668;19.326;2024-03-17T00:32:24;99366.28;;;8.02;100.00
80424;BME280;69765;47.668;19.326;2024-03-17T00:35:25;99368.56;;;7.99;100.00
80424;BME280;69765;47.668;19.326;2024-03-17T00:38:27;99358.16;;;7.96;100.00
80424;BME280;69765;47.668;19.326;2024-03-17T00:41:28;99355.88;;;7.88;100.00
80424;BME280;69765;47.668;19.326;2024-03-17T00:44:29;99359.59;;;7.82;100.00
80424;BME280;69765;47.668;19.326;2024-03-17T00:47:31;99355.75;;;7.87;100.00
80424;BME280;69765;47.668;19.326;2024-03-17T00:50:32;99354.88;;;7.86;100.00
80424;BME280;69765;47.668;19.326;2024-03-17T00:53:33;99350.72;;;7.77;100.00
80424;BME280;69765;47.668;19.326;2024-03-17T00:56:34;99341.44;;;7.67;100.00
80424;BME280;69765;47.668;19.326;2024-03-17T00:59:36;99345.88;;;7.69;100.00
80424;BME280;69765;47.668;19.326;2024-03-17T01:02:37;99347.94;;;7.63;100.00
80424;BME280;69765;47.668;19.326;2024-03-17T01:05:39;99350.91;;;7.58;100.00
80424;BME280;69765;47.668;19.326;2024-03-17T01:08:43;99344.75;;;7.56;100.00
80424;BME280;69765;47.668;19.326;2024-03-17T01:11:45;99351.91;;;7.60;100.00
80424;BME280;69765;47.668;19.326;2024-03-17T01:14:46;99357.75;;;7.59;100.00
80424;BME280;69765;47.668;19.326;2024-03-17T01:17:47;99344.13;;;7.58;100.00
80424;BME280;69765;47.668;19.326;2024-03-17T01:20:48;99346.03;;;7.61;100.00
80424;BME280;69765;47.668;19.326;2024-03-17T01:23:50;99340.16;;;7.62;100.00
80424;BME280;69765;47.668;19.326;2024-03-17T01:26:51;99352.16;;;7.63;100.00
80424;BME280;69765;47.668;19.326;2024-03-17T01:29:54;99336.59;;;7.60;100.00
80424;BME280;69765;47.668;19.326;2024-03-17T01:32:55;99334.16;;;7.61;100.00
80424;BME280;69765;47.668;19.326;2024-03-17T01:35:56;99335.72;;;7.59;100.00
80424;BME280;69765;47.668;19.326;2024-03-17T01:38:57;99330.63;;;7.59;100.00
80424;BME280;69765;47.668;19.326;2024-03-17T01:41:59;99338.22;;;7.69;100.00
80424;BME280;69765;47.668;19.326;2024-03-17T01:45:00;99336.81;;;7.73;100.00
80424;BME280;69765;47.668;19.326;2024-03-17T01:48:03;99336.50;;;7.80;100.00
80424;BME280;69765;47.668;19.326;2024-03-17T01:51:05;99336.66;;;7.82;100.00
80424;BME280;69765;47.668;19.326;2024-03-17T01:54:08;99335.41;;;7.77;100.00
80424;BME280;69765;47.668;19.326;2024-03-17T01:57:09;99337.22;;;7.67;100.00
80424;BME280;69765;47.668;19.326;2024-03-17T02:00:12;99340.81;;;7.59;100.00
80424;BME280;69765;47.668;19.326;2024-03-17T02:03:13;99336.50;;;7.58;100.00
80424;BME280;69765;47.668;19.326;2024-03-17T02:06:14;99335.50;;;7.46;100.00
80424;BME280;69765;47.668;19.326;2024-03-17T02:09:16;99341.06;;;7.52;100.00
80424;BME280;69765;47.668;19.326;2024-03-17T02:12:17;99343.41;;;7.39;100.00
80424;BME280;69765;47.668;19.326;2024-03-17T02:15:18;99351.06;;;7.29;100.00
80424;BME280;69765;47.668;19.326;2024-03-17T02:18:20;99350.97;;;7.17;100.00
80424;BME280;69765;47.668;19.326;2024-03-17T02:21:21;99355.41;;;7.20;100.00
80424;BME280;69765;47.668;19.326;2024-03-17T02:24:26;99359.75;;;7.31;100.00
80424;BME280;69765;47.668;19.326;2024-03-17T02:27:27;99355.16;;;7.27;100.00
80424;BME280;69765;47.668;19.326;2024-03-17T02:30:29;99358.69;;;7.29;100.00
80424;BME280;69765;47.668;19.326;2024-03-17T02:33:31;99360.50;;;7.30;100.00
80424;BME280;69765;47.668;19.326;2024-03-17T02:36:32;99366.75;;;7.23;100.00
80424;BME280;69765;47.668;19.326;2024-03-17T02:39:34;99370.06;;;7.22;100.00
80424;BME280;69765;47.668;19.326;2024-03-17T02:42:36;99361.41;;;7.30;100.00
80424;BME280;69765;47.668;19.326;2024-03-17T02:45:39;99363.69;;;7.27;100.00
80424;BME280;69765;47.668;19.326;2024-03-17T02:48:40;99368.16;;;7.30;100.00
80424;BME280;69765;47.668;19.326;2024-03-17T02:51:45;99376.38;;;7.48;100.00
80424;BME280;69765;47.668;19.326;2024-03-17T02:54:47;99366.19;;;7.48;100.00
80424;BME280;69765;47.668;19.326;2024-03-17T02:57:48;99367.63;;;7.44;100.00
80424;BME280;69765;47.668;19.326;2024-03-17T03:00:49;99371.28;;;7.48;100.00
80424;BME280;69765;47.668;19.326;2024-03-17T03:03:50;99377.00;;;7.55;100.00
80424;BME280;69765;47.668;19.326;2024-03-17T03:06:52;99377.41;;;7.50;100.00
80424;BME280;69765;47.668;19.326;2024-03-17T03:09:53;99380.59;;;7.47;100.00
80424;BME280;69765;47.668;19.326;2024-03-17T03:12:55;99362.13;;;7.50;100.00
80424;BME280;69765;47.668;19.326;2024-03-17T03:15:56;99361.72;;;7.55;100.00
80424;BME280;69765;47.668;19.326;2024-03-17T03:18:57;99353.69;;;7.51;100.00
80424;BME280;69765;47.668;19.326;2024-03-17T03:21:58;99351.66;;;7.47;100.00
80424;BME280;69765;47.668;19.326;2024-03-17T03:25:00;99345.41;;;7.43;100.00
80424;BME280;69765;47.668;19.326;2024-03-17T03:28:01;99352.47;;;7.35;100.00
80424;BME280;69765;47.668;19.326;2024-03-17T03:31:04;99363.78;;;7.29;100.00
80424;BME280;69765;47.668;19.326;2024-03-17T03:34:05;99360.00;;;7.24;100.00
80424;BME280;69765;47.668;19.326;2024-03-17T03:37:09;99364.72;;;7.19;100.00
80424;BME280;69765;47.668;19.326;2024-03-17T03:40:12;99367.28;;;7.29;100.00
80424;BME280;69765;47.668;19.326;2024-03-17T03:43:17;99364.19;;;7.23;100.00
80424;BME280;69765;47.668;19.326;2024-03-17T03:46:19;99373.09;;;7.28;100.00
80424;BME280;69765;47.668;19.326;2024-03-17T03:49:20;99365.59;;;7.20;100.00
80424;BME280;69765;47.668;19.326;2024-03-17T03:52:21;99368.03;;;7.18;100.00
80424;BME280;69765;47.668;19.326;2024-03-17T03:55:23;99377.06;;;7.14;100.00
80424;BME280;69765;47.668;19.326;2024-03-17T03:58:25;99379.50;;;7.13;100.00
80424;BME280;69765;47.668;19.326;2024-03-17T04:01:26;99374.00;;;7.18;100.00
80424;BME280;69765;47.668;19.326;2024-03-17T04:04:27;99372.72;;;7.24;100.00
80424;BME280;69765;47.668;19.326;2024-03-17T04:07:28;99373.63;;;7.24;100.00
80424;BME280;69765;47.668;19.326;2024-03-17T04:10:30;99381.25;;;7.24;100.00
80424;BME280;69765;47.668;19.326;2024-03-17T04:13:31;99381.66;;;7.18;100.00
80424;BME280;69765;47.668;19.326;2024-03-17T04:16:32;99379.75;;;7.16;100.00
80424;BME280;69765;47.668;19.326;2024-03-17T04:19:33;99385.22;;;7.10;100.00
80424;BME280;69765;47.668;19.326;2024-03-17T04:22:35;99392.75;;;7.09;100.00
80424;BME280;69765;47.668;19.326;2024-03-17T04:25:36;99385.88;;;7.08;100.00
80424;BME280;69765;47.668;19.326;2024-03-17T04:28:38;99396.94;;;6.98;100.00
80424;BME280;69765;47.668;19.326;2024-03-17T04:31:39;99399.88;;;7.03;100.00
80424;BME280;69765;47.668;19.326;2024-03-17T04:34:43;99401.38;;;6.90;100.00
80424;BME280;69765;47.668;19.326;2024-03-17T04:37:48;99416.66;;;6.80;100.00
80424;BME280;69765;47.668;19.326;2024-03-17T04:40:49;99404.81;;;6.71;100.00
80424;BME280;69765;47.668;19.326;2024-03-17T04:43:51;99400.72;;;6.73;100.00
80424;BME280;69765;47.668;19.326;2024-03-17T04:46:54;99399.22;;;6.64;100.00
80424;BME280;69765;47.668;19.326;2024-03-17T04:49:55;99406.69;;;6.53;100.00
80424;BME280;69765;47.668;19.326;2024-03-17T04:52:56;99403.91;;;6.50;100.00
80424;BME280;69765;47.668;19.326;2024-03-17T04:56:05;99402.25;;;6.60;100.00
80424;BME280;69765;47.668;19.326;2024-03-17T04:59:07;99419.94;;;6.59;100.00
80424;BME280;69765;47.668;19.326;2024-03-17T05:02:08;99405.03;;;6.53;100.00
80424;BME280;69765;47.668;19.326;2024-03-17T05:05:09;99402.88;;;6.58;100.00
80424;BME280;69765;47.668;19.326;2024-03-17T05:08:11;99404.31;;;6.64;100.00
80424;BME280;69765;47.668;19.326;2024-03-17T05:11:12;99400.88;;;6.64;100.00
80424;BME280;69765;47.668;19.326;2024-03-17T05:14:15;99411.56;;;6.70;100.00
80424;BME280;69765;47.668;19.326;2024-03-17T05:17:16;99406.84;;;6.75;100.00
80424;BME280;69765;47.668;19.326;2024-03-17T05:20:17;99421.22;;;6.64;100.00
80424;BME280;69765;47.668;19.326;2024-03-17T05:23:19;99426.03;;;6.61;100.00
80424;BME280;69765;47.668;19.326;2024-03-17T05:26:20;99423.88;;;6.55;100.00
80424;BME280;69765;47.668;19.326;2024-03-17T05:29:21;99415.34;;;6.55;100.00
80424;BME280;69765;47.668;19.326;2024-03-17T05:32:23;99425.38;;;6.53;100.00
80424;BME280;69765;47.668;19.326;2024-03-17T05:35:24;99432.78;;;6.50;100.00
80424;BME280;69765;47.668;19.326;2024-03-17T05:38:27;99426.16;;;6.52;100.00
80424;BME280;69765;47.668;19.326;2024-03-17T05:41:29;99445.47;;;6.40;100.00
80424;BME280;69765;47.668;19.326;2024-03-17T05:44:30;99448.63;;;6.37;100.00
80424;BME280;69765;47.668;19.326;2024-03-17T05:47:50;99458.91;;;6.39;100.00
80424;BME280;69765;47.668;19.326;2024-03-17T05:50:51;99451.88;;;6.65;100.00
80424;BME280;69765;47.668;19.326;2024-03-17T05:53:52;99457.00;;;6.76;100.00
80424;BME280;69765;47.668;19.326;2024-03-17T05:56:54;99452.19;;;6.79;100.00
80424;BME280;69765;47.668;19.326;2024-03-17T05:59:55;99455.63;;;7.00;100.00
80424;BME280;69765;47.668;19.326;2024-03-17T06:02:57;99446.59;;;7.13;100.00
80424;BME280;69765;47.668;19.326;2024-03-17T06:05:58;99446.38;;;7.31;100.00
80424;BME280;69765;47.668;19.326;2024-03-17T06:09:00;99440.50;;;7.32;100.00
80424;BME280;69765;47.668;19.326;2024-03-17T06:12:01;99435.78;;;7.36;100.00
80424;BME280;69765;47.668;19.326;2024-03-17T06:15:03;99448.13;;;7.42;100.00
80424;BME280;69765;47.668;19.326;2024-03-17T06:18:04;99439.94;;;7.77;100.00
80424;BME280;69765;47.668;19.326;2024-03-17T06:21:05;99447.66;;;7.99;100.00
80424;BME280;69765;47.668;19.326;2024-03-17T06:24:07;99451.38;;;8.34;99.23
80424;BME280;69765;47.668;19.326;2024-03-17T06:27:08;99457.69;;;8.93;94.91
80424;BME280;69765;47.668;19.326;2024-03-17T06:30:13;99434.34;;;9.56;89.13
80424;BME280;69765;47.668;19.326;2024-03-17T06:33:17;99436.47;;;10.09;85.32
80424;BME280;69765;47.668;19.326;2024-03-17T06:36:22;99429.34;;;10.77;78.60
80424;BME280;69765;47.668;19.326;2024-03-17T06:39:23;99417.81;;;11.20;76.63
80424;BME280;69765;47.668;19.326;2024-03-17T06:42:24;99411.16;;;11.62;71.20
80424;BME280;69765;47.668;19.326;2024-03-17T06:45:26;99403.00;;;12.07;67.03
80424;BME280;69765;47.668;19.326;2024-03-17T06:48:28;99401.53;;;12.11;64.29
80424;BME280;69765;47.668;19.326;2024-03-17T06:51:29;99408.41;;;12.38;63.63
80424;BME280;69765;47.668;19.326;2024-03-17T06:54:30;99400.53;;;12.63;61.42
80424;BME280;69765;47.668;19.326;2024-03-17T06:57:34;99388.00;;;12.54;61.07
80424;BME280;69765;47.668;19.326;2024-03-17T07:00:35;99383.63;;;13.10;59.73
80424;BME280;69765;47.668;19.326;2024-03-17T07:03:37;99395.28;;;13.18;57.67
80424;BME280;69765;47.668;19.326;2024-03-17T07:06:38;99400.00;;;12.97;59.36
80424;BME280;69765;47.668;19.326;2024-03-17T07:09:40;99409.16;;;13.49;57.78
80424;BME280;69765;47.668;19.326;2024-03-17T07:12:41;99409.66;;;14.34;55.78
80424;BME280;69765;47.668;19.326;2024-03-17T07:15:47;99404.41;;;15.63;50.97
80424;BME280;69765;47.668;19.326;2024-03-17T07:18:48;99413.59;;;16.83;47.60
80424;BME280;69765;47.668;19.326;2024-03-17T07:21:51;99415.03;;;17.55;44.22
80424;BME280;69765;47.668;19.326;2024-03-17T07:24:52;99428.16;;;18.21;42.49
80424;BME280;69765;47.668;19.326;2024-03-17T07:27:57;99415.22;;;18.90;40.63
80424;BME280;69765;47.668;19.326;2024-03-17T07:30:59;99432.19;;;19.04;39.42
80424;BME280;69765;47.668;19.326;2024-03-17T07:34:03;99444.56;;;20.37;37.67
80424;BME280;69765;47.668;19.326;2024-03-17T07:37:04;99442.88;;;20.97;34.77
80424;BME280;69765;47.668;19.326;2024-03-17T07:40:06;99437.38;;;20.86;35.42
80424;BME280;69765;47.668;19.326;2024-03-17T07:43:08;99450.13;;;21.07;35.03
80424;BME280;69765;47.668;19.326;2024-03-17T07:46:09;99445.72;;;21.66;33.82
80424;BME280;69765;47.668;19.326;2024-03-17T07:49:14;99441.72;;;21.47;33.18
80424;BME280;69765;47.668;19.326;2024-03-17T07:52:17;99458.00;;;22.05;32.51
80424;BME280;69765;47.668;19.326;2024-03-17T07:55:18;99448.19;;;23.06;31.15
80424;BME280;69765;47.668;19.326;2024-03-17T07:58:19;99447.59;;;22.80;30.84
80424;BME280;69765;47.668;19.326;2024-03-17T08:01:20;99447.00;;;23.36;30.49
80424;BME280;69765;47.668;19.326;2024-03-17T08:04:22;99446.56;;;24.08;29.21
80424;BME280;69765;47.668;19.326;2024-03-17T08:07:23;99441.88;;;24.39;29.39
80424;BME280;69765;47.668;19.326;2024-03-17T08:10:24;99446.75;;;25.45;27.72
80424;BME280;69765;47.668;19.326;2024-03-17T08:13:26;99447.19;;;25.85;27.26
80424;BME280;69765;47.668;19.326;2024-03-17T08:16:28;99444.28;;;26.62;26.67
80424;BME280;69765;47.668;19.326;2024-03-17T08:19:30;99455.81;;;26.89;25.83
80424;BME280;69765;47.668;19.326;2024-03-17T08:22:32;99465.88;;;26.24;25.47
80424;BME280;69765;47.668;19.326;2024-03-17T08:25:33;99467.66;;;26.25;25.46
80424;BME280;69765;47.668;19.326;2024-03-17T08:28:35;99456.34;;;26.39;25.45
80424;BME280;69765;47.668;19.326;2024-03-17T08:31:36;99453.97;;;26.71;24.72
80424;BME280;69765;47.668;19.326;2024-03-17T08:34:38;99456.97;;;27.61;23.53
80424;BME280;69765;47.668;19.326;2024-03-17T08:37:39;99457.84;;;27.56;23.42
80424;BME280;69765;47.668;19.326;2024-03-17T08:40:40;99456.19;;;28.14;22.47
80424;BME280;69765;47.668;19.326;2024-03-17T08:43:43;99482.53;;;28.23;22.90
80424;BME280;69765;47.668;19.326;2024-03-17T08:46:45;99471.13;;;28.20;21.17
80424;BME280;69765;47.668;19.326;2024-03-17T08:49:46;99468.50;;;28.18;22.50
80424;BME280;69765;47.668;19.326;2024-03-17T08:52:47;99464.03;;;28.72;20.91
80424;BME280;69765;47.668;19.326;2024-03-17T08:55:52;99465.69;;;29.12;21.99
80424;BME280;69765;47.668;19.326;2024-03-17T08:58:54;99468.25;;;29.32;21.03
80424;BME280;69765;47.668;19.326;2024-03-17T09:01:55;99462.28;;;28.64;20.69
80424;BME280;69765;47.668;19.326;2024-03-17T09:04:56;99470.47;;;30.03;20.21
80424;BME280;69765;47.668;19.326;2024-03-17T09:07:58;99459.59;;;28.99;20.72
80424;BME280;69765;47.668;19.326;2024-03-17T09:10:59;99464.97;;;28.45;20.76
80424;BME280;69765;47.668;19.326;2024-03-17T09:14:00;99464.59;;;29.54;19.95
80424;BME280;69765;47.668;19.326;2024-03-17T09:17:02;99476.34;;;28.76;20.57
80424;BME280;69765;47.668;19.326;2024-03-17T09:20:03;99482.44;;;29.06;20.10
80424;BME280;69765;47.668;19.326;2024-03-17T09:23:05;99474.41;;;29.31;20.06
80424;BME280;69765;47.668;19.326;2024-03-17T09:26:08;99474.31;;;29.55;19.05
80424;BME280;69765;47.668;19.326;2024-03-17T09:29:09;99479.78;;;30.50;18.50
80424;BME280;69765;47.668;19.326;2024-03-17T09:32:11;99487.41;;;30.81;17.92
80424;BME280;69765;47.668;19.326;2024-03-17T09:35:17;99488.19;;;30.91;17.79
80424;BME280;69765;47.668;19.326;2024-03-17T09:38:19;99480.97;;;31.07;18.02
80424;BME280;69765;47.668;19.326;2024-03-17T09:41:22;99479.22;;;30.16;18.96
80424;BME280;69765;47.668;19.326;2024-03-17T09:44:25;99481.16;;;30.91;18.29
80424;BME280;69765;47.668;19.326;2024-03-17T09:47:29;99483.09;;;30.74;18.01
80424;BME280;69765;47.668;19.326;2024-03-17T09:50:31;99482.50;;;31.27;17.78
80424;BME280;69765;47.668;19.326;2024-03-17T09:53:34;99477.31;;;30.32;18.54
80424;BME280;69765;47.668;19.326;2024-03-17T09:56:36;99489.75;;;30.18;18.43
80424;BME280;69765;47.668;19.326;2024-03-17T09:59:37;99484.34;;;30.32;18.19
80424;BME280;69765;47.668;19.326;2024-03-17T10:02:47;99489.63;;;30.30;18.22
80424;BME280;69765;47.668;19.326;2024-03-17T10:05:59;99482.56;;;31.20;15.91
80424;BME280;69765;47.668;19.326;2024-03-17T10:09:00;99474.06;;;30.93;16.57
80424;BME280;69765;47.668;19.326;2024-03-17T10:12:05;99478.38;;;31.00;16.71
80424;BME280;69765;47.668;19.326;2024-03-17T10:15:10;99482.97;;;31.57;16.28
80424;BME280;69765;47.668;19.326;2024-03-17T10:18:21;99481.84;;;31.73;16.68
80424;BME280;69765;47.668;19.326;2024-03-17T10:21:25;99476.72;;;32.72;15.39
80424;BME280;69765;47.668;19.326;2024-03-17T10:24:28;99485.88;;;32.02;15.03
80424;BME280;69765;47.668;19.326;2024-03-17T10:27:32;99488.00;;;32.34;14.77
80424;BME280;69765;47.668;19.326;2024-03-17T10:30:33;99483.38;;;31.23;16.06
80424;BME280;69765;47.668;19.326;2024-03-17T10:33:35;99482.63;;;31.83;15.63
80424;BME280;69765;47.668;19.326;2024-03-17T10:36:36;99485.41;;;32.29;15.03
80424;BME280;69765;47.668;19.326;2024-03-17T10:39:38;99476.50;;;32.32;14.59
80424;BME280;69765;47.668;19.326;2024-03-17T10:42:40;99488.09;;;32.26;14.52
80424;BME280;69765;47.668;19.326;2024-03-17T10:45:42;99483.25;;;31.99;14.31
80424;BME280;69765;47.668;19.326;2024-03-17T10:48:45;99481.38;;;33.49;13.79
80424;BME280;69765;47.668;19.326;2024-03-17T10:51:47;99476.19;;;33.43;13.24
80424;BME280;69765;47.668;19.326;2024-03-17T10:54:53;99484.00;;;33.07;13.25
80424;BME280;69765;47.668;19.326;2024-03-17T10:57:55;99467.88;;;33.17;13.48
80424;BME280;69765;47.668;19.326;2024-03-17T11:01:00;99486.66;;;33.09;13.61
80424;BME280;69765;47.668;19.326;2024-03-17T11:04:04;99477.91;;;33.04;13.10
80424;BME280;69765;47.668;19.326;2024-03-17T11:07:06;99474.72;;;32.83;13.54
80424;BME280;69765;47.668;19.326;2024-03-17T11:10:20;99466.19;;;33.54;12.55
80424;BME280;69765;47.668;19.326;2024-03-17T11:13:26;99466.69;;;33.31;12.87
80424;BME280;69765;47.668;19.326;2024-03-17T11:16:28;99462.72;;;33.52;12.22
80424;BME280;69765;47.668;19.326;2024-03-17T11:19:29;99467.59;;;33.30;13.06
80424;BME280;69765;47.668;19.326;2024-03-17T11:22:49;99467.09;;;32.67;13.45
80424;BME280;69765;47.668;19.326;2024-03-17T11:25:52;99466.16;;;32.69;12.66
80424;BME280;69765;47.668;19.326;2024-03-17T11:28:54;99458.06;;;33.20;13.14
80424;BME280;69765;47.668;19.326;2024-03-17T11:31:56;99455.81;;;33.44;11.92
80424;BME280;69765;47.668;19.326;2024-03-17T11:35:13;99438.00;;;33.49;12.14
80424;BME280;69765;47.668;19.326;2024-03-17T11:41:54;99444.47;;;32.94;12.28
80424;BME280;69765;47.668;19.326;2024-03-17T11:44:57;99431.88;;;31.47;12.78
80424;BME280;69765;47.668;19.326;2024-03-17T11:47:59;99430.47;;;31.22;13.63
80424;BME280;69765;47.668;19.326;2024-03-17T11:51:00;99427.41;;;32.11;13.74
80424;BME280;69765;47.668;19.326;2024-03-17T11:54:02;99417.63;;;31.56;13.63
80424;BME280;69765;47.668;19.326;2024-03-17T12:00:20;99421.13;;;30.93;13.71
80424;BME280;69765;47.668;19.326;2024-03-17T12:03:22;99430.22;;;29.69;13.67
80424;BME280;69765;47.668;19.326;2024-03-17T12:06:23;99419.81;;;29.42;14.50
80424;BME280;69765;47.668;19.326;2024-03-17T12:09:30;99428.09;;;30.13;13.74
80424;BME280;69765;47.668;19.326;2024-03-17T12:12:32;99422.34;;;30.62;13.46
80424;BME280;69765;47.668;19.326;2024-03-17T12:15:36;99417.06;;;30.62;13.10
80424;BME280;69765;47.668;19.326;2024-03-17T12:18:37;99417.13;;;29.46;14.17
80424;BME280;69765;47.668;19.326;2024-03-17T12:21:53;99433.22;;;28.99;15.09
80424;BME280;69765;47.668;19.326;2024-03-17T12:24:55;99421.88;;;27.59;16.41
80424;BME280;69765;47.668;19.326;2024-03-17T12:27:57;99418.34;;;27.56;16.52
80424;BME280;69765;47.668;19.326;2024-03-17T12:30:58;99416.56;;;27.38;17.23
80424;BME280;69765;47.668;19.326;2024-03-17T12:34:00;99421.91;;;27.94;17.13
80424;BME280;69765;47.668;19.326;2024-03-17T12:37:03;99411.38;;;27.68;16.43
80424;BME280;69765;47.668;19.326;2024-03-17T12:40:05;99398.16;;;27.47;17.01
80424;BME280;69765;47.668;19.326;2024-03-17T12:43:12;99400.69;;;27.06;17.75
80424;BME280;69765;47.668;19.326;2024-03-17T12:46:13;99402.56;;;27.65;18.08
80424;BME280;69765;47.668;19.326;2024-03-17T12:49:14;99406.91;;;27.26;17.22
80424;BME280;69765;47.668;19.326;2024-03-17T12:52:21;99407.78;;;27.25;17.76
80424;BME280;69765;47.668;19.326;2024-03-17T12:55:23;99399.66;;;26.70;17.82
80424;BME280;69765;47.668;19.326;2024-03-17T12:58:43;99409.16;;;26.48;18.33
80424;BME280;69765;47.668;19.326;2024-03-17T13:02:10;99404.06;;;25.63;19.21
80424;BME280;69765;47.668;19.326;2024-03-17T13:05:16;99390.13;;;25.67;19.38
80424;BME280;69765;47.668;19.326;2024-03-17T13:08:18;99399.34;;;24.01;20.48
80424;BME280;69765;47.668;19.326;2024-03-17T13:11:19;99392.94;;;22.89;20.88
80424;BME280;69765;47.668;19.326;2024-03-17T13:14:20;99373.28;;;22.66;21.69
80424;BME280;69765;47.668;19.326;2024-03-17T13:17:21;99394.34;;;23.16;21.74
80424;BME280;69765;47.668;19.326;2024-03-17T13:20:23;99369.25;;;21.67;21.96
80424;BME280;69765;47.668;19.326;2024-03-17T13:23:25;99367.22;;;21.24;23.32
80424;BME280;69765;47.668;19.326;2024-03-17T13:26:26;99361.50;;;21.05;23.91
80424;BME280;69765;47.668;19.326;2024-03-17T13:29:27;99359.44;;;20.33;24.25
80424;BME280;69765;47.668;19.326;2024-03-17T13:32:28;99343.75;;;20.03;25.22
80424;BME280;69765;47.668;19.326;2024-03-17T13:35:30;99343.78;;;19.25;25.63
80424;BME280;69765;47.668;19.326;2024-03-17T13:38:31;99357.06;;;19.09;25.90
80424;BME280;69765;47.668;19.326;2024-03-17T13:41:32;99362.38;;;18.88;26.46
80424;BME280;69765;47.668;19.326;2024-03-17T13:44:34;99362.84;;;18.31;28.35
80424;BME280;69765;47.668;19.326;2024-03-17T13:47:35;99365.47;;;18.10;28.97
80424;BME280;69765;47.668;19.326;2024-03-17T13:50:38;99368.38;;;18.18;27.75
80424;BME280;69765;47.668;19.326;2024-03-17T13:53:40;99368.53;;;17.58;27.69
80424;BME280;69765;47.668;19.326;2024-03-17T13:56:48;99364.75;;;17.50;28.00
80424;BME280;69765;47.668;19.326;2024-03-17T13:59:50;99363.59;;;17.44;29.25
80424;BME280;69765;47.668;19.326;2024-03-17T14:02:54;99372.50;;;17.29;28.56
80424;BME280;69765;47.668;19.326;2024-03-17T14:05:57;99369.41;;;16.60;29.17
80424;BME280;69765;47.668;19.326;2024-03-17T14:08:58;99363.91;;;16.16;29.37
80424;BME280;69765;47.668;19.326;2024-03-17T14:11:59;99352.31;;;16.07;30.03
80424;BME280;69765;47.668;19.326;2024-03-17T14:15:01;99346.72;;;15.63;30.33
80424;BME280;69765;47.668;19.326;2024-03-17T14:18:02;99352.94;;;15.32;30.95
80424;BME280;69765;47.668;19.326;2024-03-17T14:21:03;99351.41;;;15.01;31.26
80424;BME280;69765;47.668;19.326;2024-03-17T14:24:06;99347.59;;;14.95;31.25
80424;BME280;69765;47.668;19.326;2024-03-17T14:27:12;99353.34;;;14.89;30.68
80424;BME280;69765;47.668;19.326;2024-03-17T14:30:18;99361.16;;;14.74;32.27
80424;BME280;69765;47.668;19.326;2024-03-17T14:33:19;99367.59;;;14.66;31.68
80424;BME280;69765;47.668;19.326;2024-03-17T14:36:20;99360.69;;;14.34;32.60
80424;BME280;69765;47.668;19.326;2024-03-17T14:39:27;99367.59;;;14.19;32.67
80424;BME280;69765;47.668;19.326;2024-03-17T14:42:30;99362.94;;;13.97;33.00
80424;BME280;69765;47.668;19.326;2024-03-17T14:45:31;99363.63;;;13.63;33.78
80424;BME280;69765;47.668;19.326;2024-03-17T14:48:32;99354.50;;;13.39;35.01
80424;BME280;69765;47.668;19.326;2024-03-17T14:51:33;99356.03;;;13.07;35.55
80424;BME280;69765;47.668;19.326;2024-03-17T14:54:35;99358.94;;;12.98;35.80
80424;BME280;69765;47.668;19.326;2024-03-17T14:57:40;99342.72;;;12.85;36.26
80424;BME280;69765;47.668;19.326;2024-03-17T15:00:41;99351.97;;;12.68;36.41
80424;BME280;69765;47.668;19.326;2024-03-17T15:03:43;99350.19;;;12.52;36.58
80424;BME280;69765;47.668;19.326;2024-03-17T15:06:44;99340.63;;;12.36;36.56
80424;BME280;69765;47.668;19.326;2024-03-17T15:09:46;99356.56;;;12.17;36.65
80424;BME280;69765;47.668;19.326;2024-03-17T15:12:50;99353.34;;;12.07;37.94
80424;BME280;69765;47.668;19.326;2024-03-17T15:15:51;99370.34;;;11.91;37.72
80424;BME280;69765;47.668;19.326;2024-03-17T15:18:55;99356.09;;;11.70;37.85
80424;BME280;69765;47.668;19.326;2024-03-17T15:21:57;99358.19;;;11.49;38.32
80424;BME280;69765;47.668;19.326;2024-03-17T15:24:58;99363.94;;;11.33;39.01
80424;BME280;69765;47.668;19.326;2024-03-17T15:27:59;99360.59;;;11.21;39.02
80424;BME280;69765;47.668;19.326;2024-03-17T15:31:04;99360.16;;;11.15;40.65
80424;BME280;69765;47.668;19.326;2024-03-17T15:34:05;99370.09;;;10.97;40.40
80424;BME280;69765;47.668;19.326;2024-03-17T15:37:07;99367.41;;;10.82;40.93
80424;BME280;69765;47.668;19.326;2024-03-17T15:40:12;99357.75;;;10.66;41.33
80424;BME280;69765;47.668;19.326;2024-03-17T15:43:19;99385.44;;;10.59;41.54
80424;BME280;69765;47.668;19.326;2024-03-17T15:46:21;99378.88;;;10.51;42.96
80424;BME280;69765;47.668;19.326;2024-03-17T15:49:28;99386.91;;;10.43;43.03
80424;BME280;69765;47.668;19.326;2024-03-17T15:52:30;99384.91;;;10.39;43.23
80424;BME280;69765;47.668;19.326;2024-03-17T15:55:32;99384.47;;;10.33;43.13
80424;BME280;69765;47.668;19.326;2024-03-17T15:58:34;99391.84;;;10.29;43.51
80424;BME280;69765;47.668;19.326;2024-03-17T16:01:36;99394.72;;;10.21;43.40